Comparison billing benefits electrical Power


Consumption KWH τετραμήνου day: + night: ΟΤΣ: 59.67  
CompanyProduct/kWh 1 /kWh 2 Fixed charge/kWh N Fixed charge N Original Cost Final Cost Other parametersLimit ΟΤΣ Updated on
ΠΕΤΡΟΓΚΑΖ Red Home Solar 0,06950 0,06950 0 0 0 55,6059,34 Benefits where combine Electrical energy and pv system up to 10 kW 55 26/1/2020
elin electricon Home Night 0,08500 0,08500 0 0,06610 0 66,1159,50 Without Ρήτρα ΟΤΣ. Possibility discount συνέπειας 10,00% 0 26/1/2020
ΗΡΩΝ Home 1Ν 0,08500 0,09200 0 0,06610 0 66,1173,19 Possibility discount συνέπειας 1,00% 50 26/1/2020
ΕΛΤΑ Home () 0,08400 0,08400 €1 0,06610 0 66,4159,77 Possibility discount συνέπειας 10,00% 65 26/1/2020
elin electricon Home 0,08500 0,08500 0 0 0 68,0061,20 Without Ρήτρα ΟΤΣ. Possibility discount συνέπειας 10,00% 0 26/1/2020
ΗΡΩΝ Home 1 0,08500 0,09200 0 0 0 68,0075,06 Possibility discount συνέπειας 1,00% 50 26/1/2020
ΕΛΤΑ ΕΛΤΑ Home 2 () 0,08400 0,08400 €1 0 0 68,2061,38 Possibility discount συνέπειας 10,00% 65 26/1/2020
FOS Plus FOS Plus Family Prime Night_ 0,08800 0,08800 0 0,06610 0 68,2171,95 55 26/1/2020
Elpedison 24 Hours Night 0,06390 0,06390 €17,60 0,06390 0 68,7276,46 50 26/1/2020
Elpedison ElectricityHome Simple 0,08590 0,08590 0 0,08590 0 68,7266,15 Possibility discount συνέπειας 15,00% 50 26/1/2020
WeEnergy WE – GREEN HOME (Γ1) 0,06600 0,06600 €16 0 0 68,8068,80 With the discount έγκαιρης redemption 68 26/1/2020
Solar Energy Home Schedule S1 plus 0,06390 0,06390 €18 0 0 69,1272,86 55 26/1/2020
Elpedison ElectricityHome Night 0,08950 0,08950 0 0,06610 0 69,2666,61 Possibility discount συνέπειας 15,00% 50 26/1/2020
Solar Energy Home Schedule S1N 0,08950 0,08950 0 0,06610 0 69,2662,61 Possibility discount συνέπειας 15,00% 55 26/1/2020
WATT + VOLT Home Energy Night 0,08500 0,09200 €3,52 0,06610 0 69,6369,63 60 26/1/2020
ΕΛΤΑ Home () 0,08600 0,08600 €1 0 0 69,8062,82 Possibility discount συνέπειας 10,00% 65 26/1/2020
FOS Plus FOS Plus Family Prime_ 0,08800 0,08800 0 0 0 70,4074,14 55 26/1/2020
ΗΡΩΝ Night Debit 24/7 0,06590 0,06590 €18 0,06590 0 70,7277,75 Possibility discount συνέπειας 1,00% 50 26/1/2020
elin electricon Night 365 0,06590 0,06590 €18 0 0 70,72 Without Ρήτρα ΟΤΣ 0 26/1/2020
Volterra HOME V1 Night 0,08990 0,08990 0 0,07897 0 70,8367,29 Possibility discount συνέπειας 5,00% 60 26/1/2020
WATT + VOLT Liberty 0,06400 0,06400 €19,67 0,06400 0 70,8770,87 The fixed charge is calculated from the annual subscription of 59,00 euro. Is valid up to 29/02/2020 60 26/1/2020
WeEnergy We- Green Home N ( ) 0,07000 0,07000 €16 0,06400 0 71,4071,40 With the discount έγκαιρης redemption 68 26/1/2020
Elpedison ElectricityHome Day 0,08950 0,08950 0 0,08950 0 71,6068,60 Possibility discount συνέπειας 15,00% 50 26/1/2020
Solar Energy Home Schedule S1 0,08950 0,08950 0 0 0 71,6064,60 Possibility discount συνέπειας 15,00% 55 26/1/2020
Volterra Home V1 0,08990 0,08990 0 0 0 71,9268,32 Possibility discount συνέπειας 5,00% 60 26/1/2020
FOS Plus FOS Plus Family Night_(Night Home) 0,09400 0,09400 0 0,06610 0 72,4176,15 55 26/1/2020
nrg Basic N 0,08950 0,08950 €3,52 0,06610 0 72,7861,86 Possibility discount συνέπειας 15% 60 26/1/2020
Elpedison ElectricityHome Protect Simple 0,08600 0,08600 €4 0,08600 0 72,8069,62 Possibility discount συνέπειας 15,00% 50 26/1/2020
Volton Volton at Home Night 0,08987 0,08987 €1,44 0,06610 €1,92 72,8869,69 Possibility discount συνέπειας 15,00% 50 26/1/2020
nrg Basic 0,08950 0,08950 €1,52 0 0 73,1262,15 Possibility discount συνέπειας 15% 60 26/1/2020
Elpedison ElectricityHome Protect Night 0,08960 0,08960 €4 0,06610 0 73,3370,07 Possibility discount συνέπειας 15,00% 50 26/1/2020
Volton Volton at Home 0,08987 0,08987 €1,44 0 0 73,3470,08 Possibility discount συνέπειας 15,00% 50 26/1/2020
ZeniΘ POWER HOME Night 0,08990 0,08990 0 0,06610 €4 73,5466,25 Possibility discount συνέπειας 15,00% 55 26/1/2020
FOS Plus FOS Plus Family_(Home) 0,09400 0,09400 0 0 0 75,2078,94 55 26/1/2020
Elpedison ElectricityHome Protect Day 0,08960 0,08960 €4 0,08960 0 75,6872,07 Possibility discount συνέπειας 15,00% 50 26/1/2020
ZeniΘ POWER HOME 0,08990 0,08990 €4 0,08990 0 75,9268,27 Possibility discount συνέπειας 15,00% 55 26/1/2020
ΠΕΤΡΟΓΚΑΖ Red Home Night 0,10010 0,10010 0 0,06320 0 76,3968,67 Possibility discount συνέπειας 15,00% 55 26/1/2020
nrg nrg 4ALL 0,06975 0,06975 €22 0 0 77,8077,80 Deal is valid with 24μηνη Convention, up to 31/1/2020 60 26/1/2020
WeEnergy We- Green Home N ( ) 0,08000 0,08000 €16 0,06600 0 78,6078,60 68 26/1/2020
Elpedison ElectricityHome Protect Simple Fixed 0,08600 0,08600 €10 0,08600 0 78,8066,98 Possibility discount συνέπειας 15,00% 0 26/1/2020
Elpedison ElectricityHome Protect Night Fixed 0,08960 0,08960 €10 0,06610 0 79,3367,43 Possibility discount συνέπειας 15,00% 0 26/1/2020
WeEnergy WE – GREEN HOME (Γ1) 0,08000 0,08000 €16 0 0 80,0080,00 68 26/1/2020
ΠΕΤΡΟΓΚΑΖ Red Home 0,10010 0,10010 0 0 0 80,0871,81 Possibility discount συνέπειας 15,00% 55 26/1/2020
Elpedison ElectricityHome Protect Day Fixed 0,08960 0,08960 €10 0,08960 0 81,6869,43 Possibility discount συνέπειας 15,00% 0 26/1/2020
ΠΕΤΡΟΓΚΑΖ Red Home Night Fixed 0,10800 0,10800 0 0,07110 0 82,7174,04 Possibility discount συνέπειας 15,00% 55 26/1/2020
Natural Gas Current Home 24/7 Night 0,07890 0,07890 €20 0,07890 0 83,1286,86 55 26/1/2020
ΠΕΤΡΟΓΚΑΖ Red Home Fixed 0,10800 0,10800 0 0 0 86,4077,18 Possibility discount συνέπειας 15,00% 55 26/1/2020
ZeniΘ Power Home Free 0,08380 0,08380 €19,67 0,08380 0 86,71 0 26/1/2020
Protergia Protergia Home N 0,11028 0,11274 €3,91 0,07897 0 89,0092,74 55 26/1/2020
Natural Gas Current Home Night 0,11050 0,11050 €1,69 0,07890 €2,22 89,1579,52 Possibility discount συνέπειας 15,00% 55 26/1/2020
PPC Οικιακό Νυχτερινό Τιμολόγιο - Γ1Ν 0,11058 0,11936 €1,69 0,07897 €2,22 89,2184,75 Δεν υπάρχει Ρήτρα ΟΤΣ. Δυνατότητα έκπτωσης συνέπειας 5,00% 0 26/1/2020
Protergia Protergia Home 0,11028 0,11274 €1,69 0 0 89,9193,65 55 26/1/2020
Natural Gas Current Home 0,11050 0,11050 €1,69 0,11050 0 90,0980,32 Possibility discount συνέπειας 15,00% 55 26/1/2020
PPC Οικιακό Τιμολόγιο - Γ1 0,11058 0,11936 €1,69 0 0 90,1585,65 Δεν υπάρχει Ρήτρα ΟΤΣ. Δυνατότητα έκπτωσης συνέπειας 5,00% 0 26/1/2020

€/kWh 1: Η χρέωση της kWh μέχρι 2000 kWh ανά τετράμηνο.

€/kWh 2: Η χρέωση της kWh άνω των 2000 kWh.

€/kWh Ν: Η χρέωση της kWh στο νυχτερινό τιμολόγιο

Πάγιο: Πάγια χρέωση τετραμήνου

Πάγιο Ν: Επιπλέον πάγια χρέωση για το νυχτερινό

Αρχικό κόστος: Το συνολικό κόστος χρεώσεων τετραμήνου με βάση την κατανάλωση kWh μέρας και νύχτας. Αν το πρόγραμμα δεν προσφέρει τιμολόγιο νύχτας, η κατανάλωση της νύχτας προστίθεται στην ημερήσια.

Τελικό κόστος: Το αρχικό κόστος μείον την έκπτωση συνέπειας συν την πιθανή επιβάρυνση ΟΤΣ σύμφωνα με την μέσο όρο ΟΤΣ του προηγούμενου τετραμήνου